sensor_id;sensor_type;location;lat;lon;timestamp;P1;durP1;ratioP1;P2;durP2;ratioP2
20084;SDS011;10202;48.474;9.138;2023-09-08T00:01:55;7.30;;;4.68;;
20084;SDS011;10202;48.474;9.138;2023-09-08T00:04:21;5.95;;;4.20;;
20084;SDS011;10202;48.474;9.138;2023-09-08T00:06:49;7.28;;;4.10;;
20084;SDS011;10202;48.474;9.138;2023-09-08T00:09:16;6.40;;;4.65;;
20084;SDS011;10202;48.474;9.138;2023-09-08T00:11:44;6.43;;;4.70;;
20084;SDS011;10202;48.474;9.138;2023-09-08T00:14:11;6.57;;;4.45;;
20084;SDS011;10202;48.474;9.138;2023-09-08T00:16:39;7.47;;;4.70;;
20084;SDS011;10202;48.474;9.138;2023-09-08T00:19:08;10.43;;;4.70;;
20084;SDS011;10202;48.474;9.138;2023-09-08T00:21:33;7.00;;;4.32;;
20084;SDS011;10202;48.474;9.138;2023-09-08T00:23:59;8.00;;;4.72;;
20084;SDS011;10202;48.474;9.138;2023-09-08T00:26:26;6.05;;;4.30;;
20084;SDS011;10202;48.474;9.138;2023-09-08T00:28:51;6.93;;;4.63;;
20084;SDS011;10202;48.474;9.138;2023-09-08T00:31:17;7.72;;;4.50;;
20084;SDS011;10202;48.474;9.138;2023-09-08T00:33:43;6.00;;;4.65;;
20084;SDS011;10202;48.474;9.138;2023-09-08T00:36:09;5.65;;;4.68;;
20084;SDS011;10202;48.474;9.138;2023-09-08T00:38:38;12.45;;;5.40;;
20084;SDS011;10202;48.474;9.138;2023-09-08T00:41:04;5.22;;;4.00;;
20084;SDS011;10202;48.474;9.138;2023-09-08T00:43:32;6.15;;;4.78;;
20084;SDS011;10202;48.474;9.138;2023-09-08T00:46:02;6.53;;;4.88;;
20084;SDS011;10202;48.474;9.138;2023-09-08T00:48:30;6.28;;;4.35;;
20084;SDS011;10202;48.474;9.138;2023-09-08T00:50:59;6.55;;;4.90;;
20084;SDS011;10202;48.474;9.138;2023-09-08T00:53:27;7.68;;;4.85;;
20084;SDS011;10202;48.474;9.138;2023-09-08T00:55:53;8.48;;;4.82;;
20084;SDS011;10202;48.474;9.138;2023-09-08T00:58:20;7.03;;;4.78;;
20084;SDS011;10202;48.474;9.138;2023-09-08T01:00:45;5.82;;;4.50;;
20084;SDS011;10202;48.474;9.138;2023-09-08T01:03:12;9.07;;;5.22;;
20084;SDS011;10202;48.474;9.138;2023-09-08T01:05:39;8.02;;;4.82;;
20084;SDS011;10202;48.474;9.138;2023-09-08T01:08:06;7.82;;;5.70;;
20084;SDS011;10202;48.474;9.138;2023-09-08T01:10:35;10.90;;;4.97;;
20084;SDS011;10202;48.474;9.138;2023-09-08T01:13:04;8.32;;;4.88;;
20084;SDS011;10202;48.474;9.138;2023-09-08T01:15:29;6.22;;;5.05;;
20084;SDS011;10202;48.474;9.138;2023-09-08T01:17:57;6.90;;;5.18;;
20084;SDS011;10202;48.474;9.138;2023-09-08T01:20:28;5.70;;;4.35;;
20084;SDS011;10202;48.474;9.138;2023-09-08T01:23:01;6.20;;;4.80;;
20084;SDS011;10202;48.474;9.138;2023-09-08T01:25:35;7.13;;;5.38;;
20084;SDS011;10202;48.474;9.138;2023-09-08T01:28:10;6.53;;;4.72;;
20084;SDS011;10202;48.474;9.138;2023-09-08T01:30:40;6.68;;;5.35;;
20084;SDS011;10202;48.474;9.138;2023-09-08T01:33:05;9.13;;;5.50;;
20084;SDS011;10202;48.474;9.138;2023-09-08T01:35:33;8.43;;;5.53;;
20084;SDS011;10202;48.474;9.138;2023-09-08T01:37:59;10.27;;;5.35;;
20084;SDS011;10202;48.474;9.138;2023-09-08T01:40:24;11.70;;;5.78;;
20084;SDS011;10202;48.474;9.138;2023-09-08T01:42:52;7.55;;;5.93;;
20084;SDS011;10202;48.474;9.138;2023-09-08T01:45:21;7.75;;;6.03;;
20084;SDS011;10202;48.474;9.138;2023-09-08T01:47:49;9.50;;;6.00;;
20084;SDS011;10202;48.474;9.138;2023-09-08T01:50:17;9.30;;;5.95;;
20084;SDS011;10202;48.474;9.138;2023-09-08T01:52:46;8.88;;;5.90;;
20084;SDS011;10202;48.474;9.138;2023-09-08T01:55:12;7.30;;;5.97;;
20084;SDS011;10202;48.474;9.138;2023-09-08T01:57:37;8.65;;;6.30;;
20084;SDS011;10202;48.474;9.138;2023-09-08T02:00:03;9.80;;;6.10;;
20084;SDS011;10202;48.474;9.138;2023-09-08T02:02:37;8.98;;;5.90;;
20084;SDS011;10202;48.474;9.138;2023-09-08T02:05:03;7.40;;;5.88;;
20084;SDS011;10202;48.474;9.138;2023-09-08T02:07:31;10.40;;;6.47;;
20084;SDS011;10202;48.474;9.138;2023-09-08T02:09:57;8.90;;;5.78;;
20084;SDS011;10202;48.474;9.138;2023-09-08T02:12:22;11.38;;;6.30;;
20084;SDS011;10202;48.474;9.138;2023-09-08T02:14:47;7.82;;;6.18;;
20084;SDS011;10202;48.474;9.138;2023-09-08T02:17:17;9.82;;;6.00;;
20084;SDS011;10202;48.474;9.138;2023-09-08T02:19:46;8.68;;;6.00;;
20084;SDS011;10202;48.474;9.138;2023-09-08T02:22:11;9.80;;;6.15;;
20084;SDS011;10202;48.474;9.138;2023-09-08T02:24:39;8.13;;;5.95;;
20084;SDS011;10202;48.474;9.138;2023-09-08T02:27:04;8.48;;;5.93;;
20084;SDS011;10202;48.474;9.138;2023-09-08T02:29:32;9.07;;;6.35;;
20084;SDS011;10202;48.474;9.138;2023-09-08T02:31:57;7.68;;;5.82;;
20084;SDS011;10202;48.474;9.138;2023-09-08T02:34:25;9.13;;;6.15;;
20084;SDS011;10202;48.474;9.138;2023-09-08T02:36:53;8.27;;;5.90;;
20084;SDS011;10202;48.474;9.138;2023-09-08T02:39:24;8.52;;;5.90;;
20084;SDS011;10202;48.474;9.138;2023-09-08T02:41:51;7.82;;;6.03;;
20084;SDS011;10202;48.474;9.138;2023-09-08T02:44:24;10.65;;;6.70;;
20084;SDS011;10202;48.474;9.138;2023-09-08T02:46:51;11.35;;;6.50;;
20084;SDS011;10202;48.474;9.138;2023-09-08T02:49:20;8.88;;;5.70;;
20084;SDS011;10202;48.474;9.138;2023-09-08T02:51:46;9.35;;;5.90;;
20084;SDS011;10202;48.474;9.138;2023-09-08T02:54:11;8.80;;;6.43;;
20084;SDS011;10202;48.474;9.138;2023-09-08T02:56:36;8.95;;;6.70;;
20084;SDS011;10202;48.474;9.138;2023-09-08T02:59:02;7.57;;;6.22;;
20084;SDS011;10202;48.474;9.138;2023-09-08T03:01:27;10.55;;;6.90;;
20084;SDS011;10202;48.474;9.138;2023-09-08T03:03:53;10.55;;;6.22;;
20084;SDS011;10202;48.474;9.138;2023-09-08T03:06:19;8.13;;;6.32;;
20084;SDS011;10202;48.474;9.138;2023-09-08T03:08:46;8.57;;;6.40;;
20084;SDS011;10202;48.474;9.138;2023-09-08T03:11:12;8.27;;;6.30;;
20084;SDS011;10202;48.474;9.138;2023-09-08T03:13:41;7.03;;;5.80;;
20084;SDS011;10202;48.474;9.138;2023-09-08T03:16:11;7.28;;;5.78;;
20084;SDS011;10202;48.474;9.138;2023-09-08T03:18:39;11.35;;;6.60;;
20084;SDS011;10202;48.474;9.138;2023-09-08T03:21:05;10.95;;;6.10;;
20084;SDS011;10202;48.474;9.138;2023-09-08T03:23:43;8.77;;;6.10;;
20084;SDS011;10202;48.474;9.138;2023-09-08T03:26:09;10.80;;;6.10;;
20084;SDS011;10202;48.474;9.138;2023-09-08T03:28:37;9.48;;;5.40;;
20084;SDS011;10202;48.474;9.138;2023-09-08T03:31:04;7.45;;;6.18;;
20084;SDS011;10202;48.474;9.138;2023-09-08T03:33:32;16.80;;;5.57;;
20084;SDS011;10202;48.474;9.138;2023-09-08T03:35:58;10.85;;;5.82;;
20084;SDS011;10202;48.474;9.138;2023-09-08T03:38:23;7.32;;;5.72;;
20084;SDS011;10202;48.474;9.138;2023-09-08T03:40:52;9.18;;;6.00;;
20084;SDS011;10202;48.474;9.138;2023-09-08T03:43:20;11.07;;;5.93;;
20084;SDS011;10202;48.474;9.138;2023-09-08T03:45:45;9.98;;;6.00;;
20084;SDS011;10202;48.474;9.138;2023-09-08T03:48:12;9.40;;;5.88;;
20084;SDS011;10202;48.474;9.138;2023-09-08T03:50:38;7.15;;;5.47;;
20084;SDS011;10202;48.474;9.138;2023-09-08T03:53:07;8.45;;;5.95;;
20084;SDS011;10202;48.474;9.138;2023-09-08T03:55:33;8.45;;;6.20;;
20084;SDS011;10202;48.474;9.138;2023-09-08T03:58:01;8.75;;;5.55;;
20084;SDS011;10202;48.474;9.138;2023-09-08T04:00:30;10.32;;;5.80;;
20084;SDS011;10202;48.474;9.138;2023-09-08T04:03:00;8.32;;;5.80;;
20084;SDS011;10202;48.474;9.138;2023-09-08T04:05:26;8.07;;;5.90;;
20084;SDS011;10202;48.474;9.138;2023-09-08T04:07:52;8.13;;;5.60;;
20084;SDS011;10202;48.474;9.138;2023-09-08T04:10:17;7.97;;;5.68;;
20084;SDS011;10202;48.474;9.138;2023-09-08T04:12:45;10.60;;;6.05;;
20084;SDS011;10202;48.474;9.138;2023-09-08T04:15:13;9.10;;;6.22;;
20084;SDS011;10202;48.474;9.138;2023-09-08T04:17:39;10.02;;;5.97;;
20084;SDS011;10202;48.474;9.138;2023-09-08T04:20:06;9.95;;;6.57;;
20084;SDS011;10202;48.474;9.138;2023-09-08T04:22:38;8.15;;;5.80;;
20084;SDS011;10202;48.474;9.138;2023-09-08T04:25:08;8.98;;;5.53;;
20084;SDS011;10202;48.474;9.138;2023-09-08T04:27:33;7.93;;;5.68;;
20084;SDS011;10202;48.474;9.138;2023-09-08T04:30:00;7.43;;;5.57;;
20084;SDS011;10202;48.474;9.138;2023-09-08T04:32:29;11.07;;;5.70;;
20084;SDS011;10202;48.474;9.138;2023-09-08T04:34:57;8.25;;;6.15;;
20084;SDS011;10202;48.474;9.138;2023-09-08T04:37:24;8.15;;;5.65;;
20084;SDS011;10202;48.474;9.138;2023-09-08T04:39:50;9.27;;;6.18;;
20084;SDS011;10202;48.474;9.138;2023-09-08T04:42:17;7.28;;;5.65;;
20084;SDS011;10202;48.474;9.138;2023-09-08T04:44:46;8.77;;;6.20;;
20084;SDS011;10202;48.474;9.138;2023-09-08T04:47:13;9.60;;;6.03;;
20084;SDS011;10202;48.474;9.138;2023-09-08T04:49:39;8.45;;;6.40;;
20084;SDS011;10202;48.474;9.138;2023-09-08T04:52:05;10.73;;;6.13;;
20084;SDS011;10202;48.474;9.138;2023-09-08T04:54:31;9.18;;;6.47;;
20084;SDS011;10202;48.474;9.138;2023-09-08T04:56:57;10.20;;;6.53;;
20084;SDS011;10202;48.474;9.138;2023-09-08T04:59:24;8.43;;;6.22;;
20084;SDS011;10202;48.474;9.138;2023-09-08T05:01:51;8.20;;;5.95;;
20084;SDS011;10202;48.474;9.138;2023-09-08T05:04:20;7.82;;;5.93;;
20084;SDS011;10202;48.474;9.138;2023-09-08T05:06:46;8.98;;;6.20;;
20084;SDS011;10202;48.474;9.138;2023-09-08T05:09:17;10.05;;;6.25;;
20084;SDS011;10202;48.474;9.138;2023-09-08T05:11:45;20.88;;;6.70;;
20084;SDS011;10202;48.474;9.138;2023-09-08T05:14:10;10.63;;;6.82;;
20084;SDS011;10202;48.474;9.138;2023-09-08T05:16:36;9.52;;;6.75;;
20084;SDS011;10202;48.474;9.138;2023-09-08T05:19:19;8.82;;;6.40;;
20084;SDS011;10202;48.474;9.138;2023-09-08T05:21:53;8.73;;;5.97;;
20084;SDS011;10202;48.474;9.138;2023-09-08T05:24:19;8.02;;;6.03;;
20084;SDS011;10202;48.474;9.138;2023-09-08T05:26:46;8.75;;;5.68;;
20084;SDS011;10202;48.474;9.138;2023-09-08T05:29:14;11.70;;;6.35;;
20084;SDS011;10202;48.474;9.138;2023-09-08T05:31:40;9.35;;;6.20;;
20084;SDS011;10202;48.474;9.138;2023-09-08T05:34:06;8.43;;;6.13;;
20084;SDS011;10202;48.474;9.138;2023-09-08T05:36:32;6.45;;;5.55;;
20084;SDS011;10202;48.474;9.138;2023-09-08T05:38:59;10.65;;;6.40;;
20084;SDS011;10202;48.474;9.138;2023-09-08T05:41:25;9.65;;;6.75;;
20084;SDS011;10202;48.474;9.138;2023-09-08T05:43:51;9.57;;;6.95;;
20084;SDS011;10202;48.474;9.138;2023-09-08T05:46:16;11.90;;;6.78;;
20084;SDS011;10202;48.474;9.138;2023-09-08T05:48:44;10.23;;;6.18;;
20084;SDS011;10202;48.474;9.138;2023-09-08T05:51:13;12.40;;;6.80;;
20084;SDS011;10202;48.474;9.138;2023-09-08T05:53:44;10.75;;;7.13;;
20084;SDS011;10202;48.474;9.138;2023-09-08T05:56:10;8.63;;;6.70;;
20084;SDS011;10202;48.474;9.138;2023-09-08T05:58:39;10.05;;;7.28;;
20084;SDS011;10202;48.474;9.138;2023-09-08T06:01:04;8.45;;;6.40;;
20084;SDS011;10202;48.474;9.138;2023-09-08T06:03:32;8.73;;;5.82;;
20084;SDS011;10202;48.474;9.138;2023-09-08T06:06:01;9.75;;;6.93;;
20084;SDS011;10202;48.474;9.138;2023-09-08T06:08:28;10.05;;;6.70;;
20084;SDS011;10202;48.474;9.138;2023-09-08T06:10:55;11.68;;;6.60;;
20084;SDS011;10202;48.474;9.138;2023-09-08T06:13:25;12.65;;;6.50;;
20084;SDS011;10202;48.474;9.138;2023-09-08T06:15:51;12.77;;;6.97;;
20084;SDS011;10202;48.474;9.138;2023-09-08T06:18:16;12.52;;;6.85;;
20084;SDS011;10202;48.474;9.138;2023-09-08T06:20:44;11.48;;;7.00;;
20084;SDS011;10202;48.474;9.138;2023-09-08T06:23:13;10.07;;;6.68;;
20084;SDS011;10202;48.474;9.138;2023-09-08T06:25:39;8.93;;;6.75;;
20084;SDS011;10202;48.474;9.138;2023-09-08T06:28:07;8.32;;;6.80;;
20084;SDS011;10202;48.474;9.138;2023-09-08T06:30:33;9.68;;;6.45;;
20084;SDS011;10202;48.474;9.138;2023-09-08T06:32:58;9.27;;;6.63;;
20084;SDS011;10202;48.474;9.138;2023-09-08T06:35:27;9.40;;;6.60;;
20084;SDS011;10202;48.474;9.138;2023-09-08T06:37:53;9.18;;;6.95;;
20084;SDS011;10202;48.474;9.138;2023-09-08T06:40:18;11.07;;;6.75;;
20084;SDS011;10202;48.474;9.138;2023-09-08T06:42:45;10.43;;;7.10;;
20084;SDS011;10202;48.474;9.138;2023-09-08T06:45:23;9.90;;;6.45;;
20084;SDS011;10202;48.474;9.138;2023-09-08T06:47:49;10.15;;;6.50;;
20084;SDS011;10202;48.474;9.138;2023-09-08T06:50:16;14.23;;;6.68;;
20084;SDS011;10202;48.474;9.138;2023-09-08T06:52:42;14.70;;;6.50;;
20084;SDS011;10202;48.474;9.138;2023-09-08T06:55:07;8.50;;;7.10;;
20084;SDS011;10202;48.474;9.138;2023-09-08T06:57:35;8.48;;;6.70;;
20084;SDS011;10202;48.474;9.138;2023-09-08T07:00:00;8.65;;;6.57;;
20084;SDS011;10202;48.474;9.138;2023-09-08T07:02:26;11.98;;;7.43;;
20084;SDS011;10202;48.474;9.138;2023-09-08T07:04:54;6.93;;;5.95;;
20084;SDS011;10202;48.474;9.138;2023-09-08T07:07:20;8.77;;;6.90;;
20084;SDS011;10202;48.474;9.138;2023-09-08T07:09:46;10.88;;;6.70;;
20084;SDS011;10202;48.474;9.138;2023-09-08T07:12:12;20.48;;;6.13;;
20084;SDS011;10202;48.474;9.138;2023-09-08T07:14:37;7.97;;;6.32;;
20084;SDS011;10202;48.474;9.138;2023-09-08T07:17:03;8.43;;;6.72;;
20084;SDS011;10202;48.474;9.138;2023-09-08T07:19:29;7.57;;;5.82;;
20084;SDS011;10202;48.474;9.138;2023-09-08T07:21:55;12.43;;;6.93;;
20084;SDS011;10202;48.474;9.138;2023-09-08T07:24:21;9.63;;;6.90;;
20084;SDS011;10202;48.474;9.138;2023-09-08T07:26:46;9.18;;;6.55;;
20084;SDS011;10202;48.474;9.138;2023-09-08T07:29:12;11.98;;;6.75;;
20084;SDS011;10202;48.474;9.138;2023-09-08T07:31:37;7.47;;;6.25;;
20084;SDS011;10202;48.474;9.138;2023-09-08T07:34:06;7.50;;;6.05;;
20084;SDS011;10202;48.474;9.138;2023-09-08T07:36:31;10.52;;;6.32;;
20084;SDS011;10202;48.474;9.138;2023-09-08T07:38:57;10.48;;;6.50;;
20084;SDS011;10202;48.474;9.138;2023-09-08T07:41:23;10.57;;;6.22;;
20084;SDS011;10202;48.474;9.138;2023-09-08T07:43:49;9.80;;;6.05;;
20084;SDS011;10202;48.474;9.138;2023-09-08T07:46:19;7.97;;;5.88;;
20084;SDS011;10202;48.474;9.138;2023-09-08T07:48:44;10.75;;;5.90;;
20084;SDS011;10202;48.474;9.138;2023-09-08T07:51:09;9.68;;;6.55;;
20084;SDS011;10202;48.474;9.138;2023-09-08T07:53:35;10.43;;;5.93;;
20084;SDS011;10202;48.474;9.138;2023-09-08T07:56:00;7.95;;;5.80;;
20084;SDS011;10202;48.474;9.138;2023-09-08T07:58:26;10.60;;;6.05;;
20084;SDS011;10202;48.474;9.138;2023-09-08T08:00:54;8.90;;;4.97;;
20084;SDS011;10202;48.474;9.138;2023-09-08T08:03:20;9.43;;;5.68;;
20084;SDS011;10202;48.474;9.138;2023-09-08T08:05:48;9.07;;;5.57;;
20084;SDS011;10202;48.474;9.138;2023-09-08T08:08:13;7.38;;;5.50;;
20084;SDS011;10202;48.474;9.138;2023-09-08T08:10:41;7.32;;;4.93;;
20084;SDS011;10202;48.474;9.138;2023-09-08T08:13:09;6.15;;;5.03;;
20084;SDS011;10202;48.474;9.138;2023-09-08T08:15:37;10.23;;;6.22;;
20084;SDS011;10202;48.474;9.138;2023-09-08T08:18:06;11.52;;;5.22;;
20084;SDS011;10202;48.474;9.138;2023-09-08T08:20:32;7.75;;;5.75;;
20084;SDS011;10202;48.474;9.138;2023-09-08T08:23:06;11.77;;;5.88;;
20084;SDS011;10202;48.474;9.138;2023-09-08T08:25:37;14.30;;;6.22;;
20084;SDS011;10202;48.474;9.138;2023-09-08T08:28:02;7.38;;;5.68;;
20084;SDS011;10202;48.474;9.138;2023-09-08T08:30:31;7.05;;;5.10;;
20084;SDS011;10202;48.474;9.138;2023-09-08T08:32:57;8.43;;;5.80;;
20084;SDS011;10202;48.474;9.138;2023-09-08T08:35:23;10.63;;;5.60;;
20084;SDS011;10202;48.474;9.138;2023-09-08T08:37:50;6.93;;;5.75;;
20084;SDS011;10202;48.474;9.138;2023-09-08T08:40:16;7.05;;;5.22;;
20084;SDS011;10202;48.474;9.138;2023-09-08T08:42:44;8.43;;;5.03;;
20084;SDS011;10202;48.474;9.138;2023-09-08T08:45:11;7.97;;;5.70;;
20084;SDS011;10202;48.474;9.138;2023-09-08T08:47:37;6.97;;;5.70;;
20084;SDS011;10202;48.474;9.138;2023-09-08T08:50:05;7.22;;;5.60;;
20084;SDS011;10202;48.474;9.138;2023-09-08T08:52:35;11.75;;;5.90;;
20084;SDS011;10202;48.474;9.138;2023-09-08T08:55:03;8.63;;;5.65;;
20084;SDS011;10202;48.474;9.138;2023-09-08T08:57:30;9.88;;;5.57;;
20084;SDS011;10202;48.474;9.138;2023-09-08T08:59:58;10.40;;;5.43;;
20084;SDS011;10202;48.474;9.138;2023-09-08T09:02:24;9.23;;;5.78;;
20084;SDS011;10202;48.474;9.138;2023-09-08T09:04:53;6.45;;;5.53;;
20084;SDS011;10202;48.474;9.138;2023-09-08T09:07:18;7.47;;;5.57;;
20084;SDS011;10202;48.474;9.138;2023-09-08T09:09:51;8.98;;;5.53;;
20084;SDS011;10202;48.474;9.138;2023-09-08T09:12:19;8.07;;;6.00;;
20084;SDS011;10202;48.474;9.138;2023-09-08T09:14:47;7.32;;;5.63;;
20084;SDS011;10202;48.474;9.138;2023-09-08T09:17:13;8.02;;;6.28;;
20084;SDS011;10202;48.474;9.138;2023-09-08T09:19:41;12.52;;;5.93;;
20084;SDS011;10202;48.474;9.138;2023-09-08T09:22:06;8.32;;;5.63;;
20084;SDS011;10202;48.474;9.138;2023-09-08T09:24:32;9.57;;;6.28;;
20084;SDS011;10202;48.474;9.138;2023-09-08T09:27:03;11.00;;;5.63;;
20084;SDS011;10202;48.474;9.138;2023-09-08T09:29:40;7.45;;;5.45;;
20084;SDS011;10202;48.474;9.138;2023-09-08T09:32:12;7.47;;;6.28;;
20084;SDS011;10202;48.474;9.138;2023-09-08T09:35:07;8.32;;;6.40;;
20084;SDS011;10202;48.474;9.138;2023-09-08T09:37:32;7.57;;;5.72;;
20084;SDS011;10202;48.474;9.138;2023-09-08T09:39:59;7.35;;;5.82;;
20084;SDS011;10202;48.474;9.138;2023-09-08T09:42:25;6.40;;;5.57;;
20084;SDS011;10202;48.474;9.138;2023-09-08T09:44:53;8.10;;;6.30;;
20084;SDS011;10202;48.474;9.138;2023-09-08T09:47:21;7.95;;;5.97;;
20084;SDS011;10202;48.474;9.138;2023-09-08T09:49:48;9.77;;;5.97;;
20084;SDS011;10202;48.474;9.138;2023-09-08T09:52:14;12.75;;;6.30;;
20084;SDS011;10202;48.474;9.138;2023-09-08T09:54:45;8.27;;;5.50;;
20084;SDS011;10202;48.474;9.138;2023-09-08T09:57:14;8.20;;;6.60;;
20084;SDS011;10202;48.474;9.138;2023-09-08T09:59:42;10.18;;;5.88;;
20084;SDS011;10202;48.474;9.138;2023-09-08T10:02:10;7.53;;;6.50;;
20084;SDS011;10202;48.474;9.138;2023-09-08T10:04:40;9.90;;;5.65;;
20084;SDS011;10202;48.474;9.138;2023-09-08T10:07:08;8.77;;;6.20;;
20084;SDS011;10202;48.474;9.138;2023-09-08T10:09:39;8.85;;;6.35;;
20084;SDS011;10202;48.474;9.138;2023-09-08T10:12:08;7.97;;;6.22;;
20084;SDS011;10202;48.474;9.138;2023-09-08T10:14:38;7.88;;;6.65;;
20084;SDS011;10202;48.474;9.138;2023-09-08T10:17:08;10.27;;;5.95;;
20084;SDS011;10202;48.474;9.138;2023-09-08T10:19:38;8.18;;;6.07;;
20084;SDS011;10202;48.474;9.138;2023-09-08T10:22:06;8.48;;;6.28;;
20084;SDS011;10202;48.474;9.138;2023-09-08T10:24:39;6.72;;;6.03;;
20084;SDS011;10202;48.474;9.138;2023-09-08T10:27:08;8.40;;;6.28;;
20084;SDS011;10202;48.474;9.138;2023-09-08T10:29:34;11.23;;;6.10;;
20084;SDS011;10202;48.474;9.138;2023-09-08T10:32:00;9.65;;;6.13;;
20084;SDS011;10202;48.474;9.138;2023-09-08T10:34:28;9.52;;;6.53;;
20084;SDS011;10202;48.474;9.138;2023-09-08T10:36:55;7.00;;;5.97;;
20084;SDS011;10202;48.474;9.138;2023-09-08T10:39:31;7.20;;;6.28;;
20084;SDS011;10202;48.474;9.138;2023-09-08T10:45:04;7.00;;;6.30;;
20084;SDS011;10202;48.474;9.138;2023-09-08T10:50:19;9.57;;;6.57;;
20084;SDS011;10202;48.474;9.138;2023-09-08T10:53:04;7.10;;;6.22;;
20084;SDS011;10202;48.474;9.138;2023-09-08T10:58:09;10.13;;;6.13;;
20084;SDS011;10202;48.474;9.138;2023-09-08T11:00:45;8.77;;;6.30;;
20084;SDS011;10202;48.474;9.138;2023-09-08T11:03:13;10.68;;;6.13;;
20084;SDS011;10202;48.474;9.138;2023-09-08T11:05:41;8.55;;;6.18;;
20084;SDS011;10202;48.474;9.138;2023-09-08T11:08:09;8.75;;;6.35;;
20084;SDS011;10202;48.474;9.138;2023-09-08T11:10:35;8.15;;;5.93;;
20084;SDS011;10202;48.474;9.138;2023-09-08T11:13:05;8.18;;;5.90;;
20084;SDS011;10202;48.474;9.138;2023-09-08T11:15:31;7.25;;;6.10;;
20084;SDS011;10202;48.474;9.138;2023-09-08T11:18:04;6.70;;;5.78;;
20084;SDS011;10202;48.474;9.138;2023-09-08T11:20:33;12.82;;;6.35;;
20084;SDS011;10202;48.474;9.138;2023-09-08T11:22:59;7.13;;;6.38;;
20084;SDS011;10202;48.474;9.138;2023-09-08T11:25:24;11.93;;;6.57;;
20084;SDS011;10202;48.474;9.138;2023-09-08T11:27:50;7.45;;;5.57;;
20084;SDS011;10202;48.474;9.138;2023-09-08T11:30:18;8.57;;;6.18;;
20084;SDS011;10202;48.474;9.138;2023-09-08T11:32:43;7.28;;;6.32;;
20084;SDS011;10202;48.474;9.138;2023-09-08T11:35:12;6.80;;;6.10;;
20084;SDS011;10202;48.474;9.138;2023-09-08T11:37:40;8.82;;;6.30;;
20084;SDS011;10202;48.474;9.138;2023-09-08T11:40:06;9.82;;;6.55;;
20084;SDS011;10202;48.474;9.138;2023-09-08T11:42:41;10.48;;;6.38;;
20084;SDS011;10202;48.474;9.138;2023-09-08T11:45:14;8.55;;;6.20;;
20084;SDS011;10202;48.474;9.138;2023-09-08T11:47:42;7.55;;;6.15;;
20084;SDS011;10202;48.474;9.138;2023-09-08T11:50:14;10.02;;;7.15;;
20084;SDS011;10202;48.474;9.138;2023-09-08T11:52:46;6.68;;;5.72;;
20084;SDS011;10202;48.474;9.138;2023-09-08T11:55:13;8.98;;;6.28;;
20084;SDS011;10202;48.474;9.138;2023-09-08T11:57:42;7.90;;;6.15;;
20084;SDS011;10202;48.474;9.138;2023-09-08T12:00:09;8.60;;;6.22;;
20084;SDS011;10202;48.474;9.138;2023-09-08T12:02:41;7.53;;;6.30;;
20084;SDS011;10202;48.474;9.138;2023-09-08T12:05:13;15.18;;;6.57;;
20084;SDS011;10202;48.474;9.138;2023-09-08T12:07:39;8.13;;;5.65;;
20084;SDS011;10202;48.474;9.138;2023-09-08T12:10:08;8.75;;;5.97;;
20084;SDS011;10202;48.474;9.138;2023-09-08T12:12:43;10.40;;;5.97;;
20084;SDS011;10202;48.474;9.138;2023-09-08T12:17:57;7.90;;;5.72;;
20084;SDS011;10202;48.474;9.138;2023-09-08T12:20:23;8.57;;;5.95;;
20084;SDS011;10202;48.474;9.138;2023-09-08T12:22:49;7.05;;;6.20;;
20084;SDS011;10202;48.474;9.138;2023-09-08T12:25:15;7.00;;;5.53;;
20084;SDS011;10202;48.474;9.138;2023-09-08T12:27:44;8.63;;;5.53;;
20084;SDS011;10202;48.474;9.138;2023-09-08T12:30:19;7.05;;;5.90;;
20084;SDS011;10202;48.474;9.138;2023-09-08T12:32:45;10.55;;;5.82;;
20084;SDS011;10202;48.474;9.138;2023-09-08T12:35:13;7.32;;;6.13;;
20084;SDS011;10202;48.474;9.138;2023-09-08T12:37:44;6.90;;;5.68;;
20084;SDS011;10202;48.474;9.138;2023-09-08T12:40:12;9.50;;;5.95;;
20084;SDS011;10202;48.474;9.138;2023-09-08T12:42:37;7.32;;;5.43;;
20084;SDS011;10202;48.474;9.138;2023-09-08T12:45:08;6.53;;;5.82;;
20084;SDS011;10202;48.474;9.138;2023-09-08T12:47:33;6.32;;;5.63;;
20084;SDS011;10202;48.474;9.138;2023-09-08T12:50:01;6.10;;;5.50;;
20084;SDS011;10202;48.474;9.138;2023-09-08T12:52:27;10.65;;;5.88;;
20084;SDS011;10202;48.474;9.138;2023-09-08T12:54:53;8.55;;;6.05;;
20084;SDS011;10202;48.474;9.138;2023-09-08T12:57:21;7.80;;;5.32;;
20084;SDS011;10202;48.474;9.138;2023-09-08T12:59:49;7.90;;;5.88;;
20084;SDS011;10202;48.474;9.138;2023-09-08T13:02:17;9.25;;;6.00;;
20084;SDS011;10202;48.474;9.138;2023-09-08T13:04:47;7.25;;;5.60;;
20084;SDS011;10202;48.474;9.138;2023-09-08T13:07:17;6.07;;;5.47;;
20084;SDS011;10202;48.474;9.138;2023-09-08T13:09:46;7.07;;;5.70;;
20084;SDS011;10202;48.474;9.138;2023-09-08T13:12:11;6.95;;;5.72;;
20084;SDS011;10202;48.474;9.138;2023-09-08T13:14:39;8.88;;;5.95;;
20084;SDS011;10202;48.474;9.138;2023-09-08T13:17:05;8.13;;;5.18;;
20084;SDS011;10202;48.474;9.138;2023-09-08T13:19:31;6.20;;;5.40;;
20084;SDS011;10202;48.474;9.138;2023-09-08T13:21:57;8.63;;;6.25;;
20084;SDS011;10202;48.474;9.138;2023-09-08T13:24:25;8.10;;;5.97;;
20084;SDS011;10202;48.474;9.138;2023-09-08T13:26:50;10.82;;;5.55;;
20084;SDS011;10202;48.474;9.138;2023-09-08T13:29:16;8.32;;;5.90;;
20084;SDS011;10202;48.474;9.138;2023-09-08T13:31:42;6.90;;;5.93;;
20084;SDS011;10202;48.474;9.138;2023-09-08T13:34:09;8.35;;;5.80;;
20084;SDS011;10202;48.474;9.138;2023-09-08T13:36:35;7.03;;;5.57;;
20084;SDS011;10202;48.474;9.138;2023-09-08T13:39:03;9.30;;;5.75;;
20084;SDS011;10202;48.474;9.138;2023-09-08T13:42:13;12.50;;;6.22;;
20084;SDS011;10202;48.474;9.138;2023-09-08T13:44:18;7.40;;;5.63;;
20084;SDS011;10202;48.474;9.138;2023-09-08T13:46:49;8.10;;;5.93;;
20084;SDS011;10202;48.474;9.138;2023-09-08T13:49:18;6.93;;;5.93;;
20084;SDS011;10202;48.474;9.138;2023-09-08T13:51:44;10.82;;;6.05;;
20084;SDS011;10202;48.474;9.138;2023-09-08T13:54:10;6.88;;;5.70;;
20084;SDS011;10202;48.474;9.138;2023-09-08T13:56:39;6.72;;;5.53;;
20084;SDS011;10202;48.474;9.138;2023-09-08T13:59:05;7.60;;;5.45;;
20084;SDS011;10202;48.474;9.138;2023-09-08T14:01:34;8.73;;;5.50;;
20084;SDS011;10202;48.474;9.138;2023-09-08T14:04:00;8.35;;;5.90;;
20084;SDS011;10202;48.474;9.138;2023-09-08T14:06:25;6.55;;;5.70;;
20084;SDS011;10202;48.474;9.138;2023-09-08T14:08:54;7.18;;;5.80;;
20084;SDS011;10202;48.474;9.138;2023-09-08T14:11:19;7.18;;;5.43;;
20084;SDS011;10202;48.474;9.138;2023-09-08T14:13:48;6.43;;;5.50;;
20084;SDS011;10202;48.474;9.138;2023-09-08T14:16:14;6.90;;;5.72;;
20084;SDS011;10202;48.474;9.138;2023-09-08T14:18:41;7.03;;;5.80;;
20084;SDS011;10202;48.474;9.138;2023-09-08T14:21:06;7.90;;;6.13;;
20084;SDS011;10202;48.474;9.138;2023-09-08T14:23:32;6.57;;;5.45;;
20084;SDS011;10202;48.474;9.138;2023-09-08T14:25:59;7.05;;;5.95;;
20084;SDS011;10202;48.474;9.138;2023-09-08T14:28:25;6.75;;;6.05;;
20084;SDS011;10202;48.474;9.138;2023-09-08T14:30:53;8.18;;;6.30;;
20084;SDS011;10202;48.474;9.138;2023-09-08T14:33:24;8.10;;;6.05;;
20084;SDS011;10202;48.474;9.138;2023-09-08T14:35:49;7.40;;;5.38;;
20084;SDS011;10202;48.474;9.138;2023-09-08T14:38:19;6.80;;;5.57;;
20084;SDS011;10202;48.474;9.138;2023-09-08T14:40:58;9.27;;;5.50;;
20084;SDS011;10202;48.474;9.138;2023-09-08T14:43:27;10.68;;;5.90;;
20084;SDS011;10202;48.474;9.138;2023-09-08T14:45:53;7.45;;;6.03;;
20084;SDS011;10202;48.474;9.138;2023-09-08T14:48:18;6.72;;;5.88;;
20084;SDS011;10202;48.474;9.138;2023-09-08T14:50:48;9.32;;;6.05;;
20084;SDS011;10202;48.474;9.138;2023-09-08T14:53:14;8.75;;;5.93;;
20084;SDS011;10202;48.474;9.138;2023-09-08T14:55:39;6.35;;;5.70;;
20084;SDS011;10202;48.474;9.138;2023-09-08T14:58:05;8.65;;;5.38;;
20084;SDS011;10202;48.474;9.138;2023-09-08T15:00:31;6.60;;;5.85;;